createdAt,value
2023-03-30T00:01:51.036Z,22.33
2023-03-30T00:04:24.317Z,22.21
2023-03-30T00:06:56.208Z,22.60
2023-03-30T00:09:33.987Z,23.39
2023-03-30T00:12:05.526Z,22.93
2023-03-30T00:14:39.082Z,22.79
2023-03-30T00:17:10.700Z,23.53
2023-03-30T00:19:41.007Z,21.92
2023-03-30T00:22:13.171Z,22.64
2023-03-30T00:24:44.396Z,23.55
2023-03-30T00:27:15.573Z,23.37
2023-03-30T00:29:46.966Z,23.25
2023-03-30T00:32:18.378Z,23.39
2023-03-30T00:34:48.945Z,22.84
2023-03-30T00:37:21.204Z,23.29
2023-03-30T00:39:55.219Z,23.42
2023-03-30T00:42:27.061Z,23.25
2023-03-30T00:45:30.427Z,23.82
2023-03-30T00:48:23.950Z,23.67
2023-03-30T00:51:03.940Z,24.08
2023-03-30T00:53:41.324Z,23.12
2023-03-30T00:56:14.517Z,24.10
2023-03-30T00:58:47.945Z,23.46
2023-03-30T01:01:29.898Z,23.60
2023-03-30T01:04:05.160Z,22.55
2023-03-30T01:06:37.623Z,23.34
2023-03-30T01:09:09.964Z,23.69
2023-03-30T01:11:41.735Z,23.26
2023-03-30T01:14:14.704Z,23.56
2023-03-30T01:17:29.813Z,24.74
2023-03-30T01:20:14.311Z,24.06
2023-03-30T01:23:07.013Z,23.65
2023-03-30T01:25:42.019Z,23.88
2023-03-30T01:28:13.610Z,23.39
2023-03-30T01:31:08.910Z,23.65
2023-03-30T01:34:00.202Z,23.11
2023-03-30T01:36:35.711Z,22.82
2023-03-30T01:39:43.350Z,22.94
2023-03-30T01:42:23.328Z,22.77
2023-03-30T01:45:22.299Z,23.45
2023-03-30T01:48:27.680Z,22.82
2023-03-30T01:51:11.056Z,22.64
2023-03-30T01:54:05.128Z,23.12
2023-03-30T01:56:49.712Z,23.05
2023-03-30T01:59:31.116Z,23.13
2023-03-30T02:02:05.663Z,22.60
2023-03-30T02:04:41.573Z,23.01
2023-03-30T02:07:17.091Z,23.00
2023-03-30T02:09:49.841Z,22.53
2023-03-30T02:12:22.255Z,22.62
2023-03-30T02:14:55.035Z,22.40
2023-03-30T02:17:30.754Z,22.66
2023-03-30T02:20:01.958Z,22.76
2023-03-30T02:22:34.363Z,23.05
2023-03-30T02:25:08.061Z,22.35
2023-03-30T02:27:40.158Z,22.46
2023-03-30T02:30:12.361Z,22.15
2023-03-30T02:32:55.894Z,22.84
2023-03-30T02:35:39.495Z,22.70
2023-03-30T02:38:16.857Z,22.50
2023-03-30T02:41:09.089Z,21.86
2023-03-30T02:44:24.957Z,22.06
2023-03-30T02:47:14.727Z,22.63
2023-03-30T02:50:11.516Z,22.22
2023-03-30T02:52:50.096Z,21.85
2023-03-30T02:56:14.145Z,21.97
2023-03-30T02:59:14.751Z,23.04
2023-03-30T03:01:55.904Z,22.20
2023-03-30T03:04:30.000Z,22.14
2023-03-30T03:07:23.070Z,21.80
2023-03-30T03:09:54.446Z,22.60
2023-03-30T03:12:27.651Z,21.85
2023-03-30T03:14:58.262Z,21.58
2023-03-30T03:17:36.026Z,21.87
2023-03-30T03:20:12.901Z,21.74
2023-03-30T03:22:44.626Z,21.93
2023-03-30T03:25:16.959Z,22.36
2023-03-30T03:27:59.996Z,21.95
2023-03-30T03:30:38.395Z,22.27
2023-03-30T03:33:14.849Z,21.96
2023-03-30T03:35:55.582Z,21.62
2023-03-30T03:38:26.884Z,21.73
2023-03-30T03:41:01.310Z,21.59
2023-03-30T03:43:34.118Z,21.15
2023-03-30T03:46:07.281Z,21.04
2023-03-30T03:48:38.822Z,20.71
2023-03-30T03:51:11.458Z,20.14
2023-03-30T03:53:43.135Z,19.95
2023-03-30T03:56:16.580Z,20.02
2023-03-30T03:58:48.054Z,19.67
2023-03-30T04:01:19.210Z,19.79
2023-03-30T04:03:50.287Z,19.50
2023-03-30T04:06:30.854Z,19.44
2023-03-30T04:09:03.274Z,19.49
2023-03-30T04:11:54.298Z,19.92
2023-03-30T04:15:03.445Z,20.81
2023-03-30T04:17:47.560Z,19.62
2023-03-30T04:20:38.917Z,19.87
2023-03-30T04:23:24.501Z,19.31
2023-03-30T04:26:15.610Z,19.64
2023-03-30T04:29:06.387Z,19.49
2023-03-30T04:31:48.409Z,19.72
2023-03-30T04:34:25.479Z,19.60
2023-03-30T04:37:35.094Z,19.71
2023-03-30T04:40:12.409Z,19.41
2023-03-30T04:43:04.182Z,19.37
2023-03-30T04:45:58.091Z,19.64
2023-03-30T04:48:32.168Z,19.71
2023-03-30T04:51:42.325Z,19.26
2023-03-30T04:54:29.671Z,19.70
2023-03-30T04:57:20.269Z,18.98
2023-03-30T05:00:11.352Z,18.92
2023-03-30T05:03:05.760Z,18.99
2023-03-30T05:06:02.809Z,18.95
2023-03-30T05:09:09.497Z,18.35
2023-03-30T05:11:58.651Z,18.34
2023-03-30T05:14:44.701Z,18.23
2023-03-30T05:17:37.194Z,18.25
2023-03-30T05:20:26.654Z,18.11
2023-03-30T05:23:26.079Z,17.89
2023-03-30T05:26:25.935Z,17.87
2023-03-30T05:29:28.398Z,17.72
2023-03-30T05:32:28.324Z,17.93
2023-03-30T05:35:31.444Z,17.61
2023-03-30T05:38:15.938Z,17.55
2023-03-30T05:41:13.368Z,17.62
2023-03-30T05:44:02.410Z,17.59
2023-03-30T05:46:40.378Z,17.49
2023-03-30T05:49:32.947Z,17.47
2023-03-30T05:52:17.724Z,17.32
2023-03-30T05:55:27.783Z,17.48
2023-03-30T05:58:17.933Z,17.23
2023-03-30T06:01:27.785Z,16.97
2023-03-30T06:04:00.765Z,16.80
2023-03-30T06:06:33.845Z,16.74
2023-03-30T06:09:06.018Z,16.72
2023-03-30T06:11:39.338Z,16.73
2023-03-30T06:14:21.288Z,16.76
2023-03-30T06:17:13.668Z,16.61
2023-03-30T06:19:46.626Z,16.47
2023-03-30T06:22:17.811Z,16.47
2023-03-30T06:25:00.620Z,16.28
2023-03-30T06:27:34.492Z,16.04
2023-03-30T06:30:06.576Z,16.24
2023-03-30T06:32:38.474Z,16.05
2023-03-30T06:35:41.385Z,15.78
2023-03-30T06:38:12.494Z,15.90
2023-03-30T06:40:43.818Z,15.80
2023-03-30T06:43:23.858Z,15.76
2023-03-30T06:46:16.405Z,16.00
2023-03-30T06:48:50.134Z,15.81
2023-03-30T06:51:51.245Z,15.50
2023-03-30T06:54:23.109Z,15.45
2023-03-30T06:57:00.046Z,15.29
2023-03-30T06:59:33.168Z,15.44
2023-03-30T07:02:24.067Z,15.48
2023-03-30T07:05:08.158Z,15.45
2023-03-30T07:07:54.223Z,15.37
2023-03-30T07:10:25.785Z,15.47
2023-03-30T07:12:59.715Z,15.34
2023-03-30T07:15:32.320Z,15.38
2023-03-30T07:18:06.390Z,15.46
2023-03-30T07:20:37.981Z,15.47
2023-03-30T07:23:18.692Z,15.32
2023-03-30T07:25:51.220Z,15.46
2023-03-30T07:28:47.078Z,15.30
2023-03-30T07:31:18.702Z,15.29
2023-03-30T07:33:49.938Z,15.26
2023-03-30T07:36:25.183Z,15.16
2023-03-30T07:38:57.195Z,15.30
2023-03-30T07:41:28.354Z,15.12
2023-03-30T07:44:02.724Z,15.06
2023-03-30T07:46:33.993Z,15.03
2023-03-30T07:49:05.557Z,14.92
2023-03-30T07:51:36.994Z,14.91
2023-03-30T07:54:17.990Z,14.96
2023-03-30T07:57:21.246Z,14.93
2023-03-30T07:59:52.918Z,14.81
2023-03-30T08:02:43.198Z,14.80
2023-03-30T08:05:19.836Z,14.71
2023-03-30T08:08:09.394Z,14.53
2023-03-30T08:10:42.593Z,14.63
2023-03-30T08:13:14.543Z,14.30
2023-03-30T08:15:47.411Z,14.30
2023-03-30T08:18:18.525Z,14.20
2023-03-30T08:20:53.325Z,14.19
2023-03-30T08:23:25.008Z,14.20
2023-03-30T08:25:59.650Z,14.21
2023-03-30T08:28:30.948Z,14.32
2023-03-30T08:31:09.829Z,14.24
2023-03-30T08:33:41.370Z,14.31
2023-03-30T08:36:14.316Z,14.13
2023-03-30T08:38:46.658Z,13.99
2023-03-30T08:41:49.991Z,14.10
2023-03-30T08:44:37.687Z,14.06
2023-03-30T08:47:15.533Z,14.12
2023-03-30T08:50:03.270Z,14.05
2023-03-30T08:52:35.515Z,13.97
2023-03-30T08:55:07.989Z,13.89
2023-03-30T08:57:52.965Z,14.02
2023-03-30T09:00:35.771Z,13.95
2023-03-30T09:03:17.509Z,13.87
2023-03-30T09:06:14.404Z,13.77
2023-03-30T09:08:45.883Z,13.68
2023-03-30T09:11:21.608Z,13.46
2023-03-30T09:13:53.083Z,13.49
2023-03-30T09:16:24.221Z,13.52
2023-03-30T09:18:57.320Z,13.45
2023-03-30T09:21:31.670Z,13.39
2023-03-30T09:24:03.787Z,13.30
2023-03-30T09:26:54.711Z,13.28
2023-03-30T09:29:33.204Z,13.32
2023-03-30T09:32:08.237Z,13.17
2023-03-30T09:34:49.643Z,13.28
2023-03-30T09:37:22.911Z,13.14
2023-03-30T09:39:54.218Z,13.15
2023-03-30T09:43:10.703Z,13.00
2023-03-30T09:45:42.926Z,12.90
2023-03-30T09:48:13.534Z,13.04
2023-03-30T09:50:47.036Z,13.00
2023-03-30T09:53:30.735Z,13.10
2023-03-30T09:56:06.418Z,13.31
2023-03-30T09:58:38.452Z,13.23
2023-03-30T10:01:10.635Z,13.30
2023-03-30T10:03:43.442Z,13.10
2023-03-30T10:06:23.217Z,13.01
2023-03-30T10:08:59.298Z,12.93
2023-03-30T10:11:45.397Z,12.81
2023-03-30T10:14:38.097Z,12.79
2023-03-30T10:17:09.433Z,12.72
2023-03-30T10:19:48.630Z,12.58
2023-03-30T10:22:26.075Z,12.60
2023-03-30T10:24:58.843Z,12.47
2023-03-30T10:27:35.634Z,12.49
2023-03-30T10:30:14.194Z,12.48
2023-03-30T10:32:50.633Z,12.37
2023-03-30T10:35:24.782Z,12.48
2023-03-30T10:37:58.381Z,12.23
2023-03-30T10:40:42.259Z,12.05
2023-03-30T10:43:36.502Z,12.36
2023-03-30T10:46:20.358Z,12.28
2023-03-30T10:49:03.560Z,12.18
2023-03-30T10:51:51.921Z,12.10
2023-03-30T10:54:32.157Z,12.02
2023-03-30T10:57:22.243Z,11.76
2023-03-30T11:00:27.215Z,11.65
2023-03-30T11:03:21.522Z,11.88
2023-03-30T11:05:56.479Z,11.91
2023-03-30T11:08:32.622Z,11.84
2023-03-30T11:11:04.024Z,11.80
2023-03-30T11:13:45.742Z,11.76
2023-03-30T11:16:25.279Z,11.68
2023-03-30T11:19:02.620Z,11.73
2023-03-30T11:21:33.499Z,11.81
2023-03-30T11:24:13.321Z,11.70
2023-03-30T11:26:50.408Z,11.72
2023-03-30T11:29:33.923Z,11.58
2023-03-30T11:32:17.445Z,11.76
2023-03-30T11:35:02.240Z,11.47
2023-03-30T11:38:10.238Z,11.59
2023-03-30T11:40:53.492Z,11.42
2023-03-30T11:43:25.772Z,11.60
2023-03-30T11:46:24.664Z,11.38
2023-03-30T11:49:10.960Z,11.49
2023-03-30T11:52:11.613Z,11.36
2023-03-30T11:55:13.462Z,11.48
2023-03-30T11:58:06.202Z,11.29
2023-03-30T12:01:12.251Z,11.04
2023-03-30T12:03:44.707Z,11.18
2023-03-30T12:06:35.608Z,11.27
2023-03-30T12:09:21.759Z,11.32
2023-03-30T12:12:17.192Z,11.22
2023-03-30T12:15:03.937Z,11.15
2023-03-30T12:17:44.917Z,10.98
2023-03-30T12:20:24.678Z,11.02
2023-03-30T12:23:01.042Z,10.97
2023-03-30T12:26:06.501Z,10.97
2023-03-30T12:31:52.507Z,10.92
2023-03-30T12:34:25.167Z,10.93
2023-03-30T12:37:06.122Z,10.67
2023-03-30T12:39:52.564Z,10.65
2023-03-30T12:42:28.466Z,10.58
2023-03-30T12:45:22.634Z,10.74
2023-03-30T12:48:15.867Z,10.66
2023-03-30T12:51:18.530Z,10.70
2023-03-30T12:54:19.240Z,10.70
2023-03-30T12:57:24.358Z,10.78
2023-03-30T13:00:25.116Z,10.84
2023-03-30T13:03:07.777Z,10.45
2023-03-30T13:05:43.240Z,10.54
2023-03-30T13:08:40.002Z,10.64
2023-03-30T13:11:20.853Z,10.68
2023-03-30T13:14:00.170Z,10.70
2023-03-30T13:16:57.156Z,10.82
2023-03-30T13:19:34.113Z,10.56
2023-03-30T13:22:14.406Z,10.63
2023-03-30T13:24:46.018Z,10.66
2023-03-30T13:27:17.193Z,10.59
2023-03-30T13:30:01.052Z,10.39
2023-03-30T13:33:02.966Z,10.60
2023-03-30T13:35:56.461Z,10.30
2023-03-30T13:38:44.798Z,10.39
2023-03-30T13:41:21.679Z,10.37
2023-03-30T13:43:59.740Z,10.21
2023-03-30T13:46:56.962Z,9.99
2023-03-30T13:49:49.292Z,10.07
2023-03-30T13:52:25.063Z,10.25
2023-03-30T13:54:56.358Z,9.76
2023-03-30T13:57:37.729Z,10.05
2023-03-30T14:00:40.975Z,10.00
2023-03-30T14:03:33.876Z,10.21
2023-03-30T14:06:10.834Z,10.24
2023-03-30T14:08:43.753Z,10.23
2023-03-30T14:11:26.301Z,10.20
2023-03-30T14:13:57.169Z,10.18
2023-03-30T14:16:30.938Z,10.24
2023-03-30T14:19:36.891Z,9.98
2023-03-30T14:22:28.949Z,10.06
2023-03-30T14:25:02.210Z,9.94
2023-03-30T14:27:39.843Z,9.95
2023-03-30T14:30:33.550Z,10.01
2023-03-30T14:33:13.305Z,9.80
2023-03-30T14:35:58.948Z,9.77
2023-03-30T14:38:38.632Z,9.91
2023-03-30T14:41:18.152Z,10.00
2023-03-30T14:43:55.280Z,9.68
2023-03-30T14:46:29.688Z,9.73
2023-03-30T14:49:01.014Z,9.70
2023-03-30T14:51:43.758Z,9.79
2023-03-30T14:54:23.752Z,9.84
2023-03-30T14:57:07.767Z,9.73
2023-03-30T14:59:45.798Z,9.69
2023-03-30T15:02:29.484Z,9.74
2023-03-30T15:05:01.583Z,9.64
2023-03-30T15:07:34.459Z,9.66
2023-03-30T15:10:06.213Z,9.54
2023-03-30T15:12:42.822Z,9.58
2023-03-30T15:15:17.419Z,9.70
2023-03-30T15:17:51.144Z,9.76
2023-03-30T15:20:22.752Z,9.65
2023-03-30T15:22:54.316Z,9.44
2023-03-30T15:25:37.033Z,9.44
2023-03-30T15:28:10.341Z,9.41
2023-03-30T15:30:45.776Z,9.30
2023-03-30T15:33:37.739Z,9.38
2023-03-30T15:36:14.724Z,9.09
2023-03-30T15:38:53.649Z,9.15
2023-03-30T15:41:45.934Z,9.17
2023-03-30T15:44:24.061Z,9.13
2023-03-30T15:46:57.846Z,9.26
2023-03-30T15:49:44.167Z,9.40
2023-03-30T15:52:44.451Z,8.95
2023-03-30T15:55:25.863Z,9.16
2023-03-30T15:57:57.555Z,9.06
2023-03-30T16:00:33.964Z,9.12
2023-03-30T16:03:05.793Z,8.95
2023-03-30T16:05:37.064Z,8.99
2023-03-30T16:08:08.899Z,9.02
2023-03-30T16:10:40.370Z,8.97
2023-03-30T16:13:13.736Z,8.80
2023-03-30T16:15:44.966Z,8.86
2023-03-30T16:18:16.630Z,8.82
2023-03-30T16:20:47.997Z,8.78
2023-03-30T16:23:19.333Z,8.89
2023-03-30T16:25:50.640Z,8.69
2023-03-30T16:28:22.005Z,8.69
2023-03-30T16:30:56.031Z,8.70
2023-03-30T16:33:27.462Z,8.62
2023-03-30T16:35:58.979Z,8.66
2023-03-30T16:38:30.395Z,8.49
2023-03-30T16:41:03.114Z,8.64
2023-03-30T16:43:34.650Z,8.47
2023-03-30T16:46:06.230Z,8.50
2023-03-30T16:48:37.659Z,8.57
2023-03-30T16:51:09.285Z,8.53
2023-03-30T16:53:40.467Z,8.63
2023-03-30T16:56:19.580Z,8.49
2023-03-30T16:58:50.869Z,8.54
2023-03-30T17:01:22.137Z,8.53
2023-03-30T17:03:54.008Z,8.29
2023-03-30T17:06:25.336Z,7.91
2023-03-30T17:08:57.055Z,8.33
2023-03-30T17:11:28.143Z,8.30
2023-03-30T17:13:59.502Z,8.36
2023-03-30T17:16:32.425Z,8.23
2023-03-30T17:19:03.793Z,8.12
2023-03-30T17:21:34.935Z,8.19
2023-03-30T17:24:06.123Z,8.12
2023-03-30T17:26:37.210Z,8.13
2023-03-30T17:29:08.368Z,8.23
2023-03-30T17:31:46.937Z,8.25
2023-03-30T17:34:17.862Z,8.29
2023-03-30T17:36:49.278Z,8.21
2023-03-30T17:39:20.463Z,8.01
2023-03-30T17:41:52.155Z,8.15
2023-03-30T17:44:23.391Z,8.15
2023-03-30T17:46:54.965Z,8.00
2023-03-30T17:49:26.131Z,8.16
2023-03-30T17:51:57.690Z,8.06
2023-03-30T17:54:29.227Z,7.99
2023-03-30T17:57:00.732Z,8.13
2023-03-30T17:59:32.900Z,8.12
2023-03-30T18:02:04.040Z,8.04
2023-03-30T18:04:36.802Z,7.99
2023-03-30T18:07:07.842Z,8.12
2023-03-30T18:09:39.066Z,8.19
2023-03-30T18:12:10.292Z,8.17
2023-03-30T18:14:41.687Z,7.99
2023-03-30T18:17:14.372Z,8.09
2023-03-30T18:19:47.096Z,7.90
2023-03-30T18:22:18.584Z,7.97
2023-03-30T18:24:50.460Z,7.94
2023-03-30T18:27:21.511Z,7.80
2023-03-30T18:29:53.139Z,7.85
2023-03-30T18:32:29.199Z,7.88
2023-03-30T18:35:09.357Z,7.92
2023-03-30T18:37:40.873Z,7.91
2023-03-30T18:40:28.837Z,8.15
2023-03-30T18:43:01.089Z,8.06
2023-03-30T18:45:39.152Z,8.01
2023-03-30T18:48:12.909Z,8.17
2023-03-30T18:50:45.266Z,8.32
2023-03-30T18:53:24.701Z,8.10
2023-03-30T18:56:03.218Z,8.25
2023-03-30T18:58:43.157Z,8.47
2023-03-30T19:01:33.713Z,8.63
2023-03-30T19:04:14.711Z,10.09
2023-03-30T19:06:47.701Z,11.23
2023-03-30T19:09:23.100Z,11.36
2023-03-30T19:12:01.160Z,11.70
2023-03-30T19:14:32.424Z,12.12
2023-03-30T19:17:04.039Z,12.61
2023-03-30T19:19:35.071Z,12.70
2023-03-30T19:22:06.242Z,12.66
2023-03-30T19:24:38.095Z,12.45
2023-03-30T19:27:09.882Z,12.20
2023-03-30T19:29:42.152Z,12.08
2023-03-30T19:32:13.456Z,11.59
2023-03-30T19:34:45.224Z,11.34
2023-03-30T19:37:17.557Z,11.20
2023-03-30T19:39:48.064Z,11.20
2023-03-30T19:42:19.443Z,11.23
2023-03-30T19:44:50.944Z,11.66
2023-03-30T19:47:22.433Z,11.76
2023-03-30T19:49:53.614Z,11.86
2023-03-30T19:52:25.684Z,11.90
2023-03-30T19:54:56.085Z,12.20
2023-03-30T19:57:27.726Z,12.21
2023-03-30T19:59:59.061Z,12.64
2023-03-30T20:02:30.501Z,13.02
2023-03-30T20:05:01.717Z,12.80
2023-03-30T20:07:33.306Z,12.54
2023-03-30T20:10:05.350Z,12.43
2023-03-30T20:12:37.509Z,12.60
2023-03-30T20:15:11.087Z,12.80
2023-03-30T20:17:42.345Z,12.63
2023-03-30T20:20:15.641Z,13.02
2023-03-30T20:22:47.737Z,13.51
2023-03-30T20:25:18.978Z,13.41
2023-03-30T20:27:50.747Z,13.75
2023-03-30T20:30:21.791Z,13.76
2023-03-30T20:33:06.740Z,14.41
2023-03-30T20:35:39.578Z,14.26
2023-03-30T20:38:10.427Z,14.41
2023-03-30T20:40:42.009Z,14.69
2023-03-30T20:43:13.531Z,14.85
2023-03-30T20:45:49.585Z,15.28
2023-03-30T20:48:34.869Z,15.36
2023-03-30T20:51:06.737Z,15.74
2023-03-30T20:53:39.166Z,15.96
2023-03-30T20:56:12.506Z,15.18
2023-03-30T20:58:44.437Z,15.90
2023-03-30T21:01:28.382Z,16.43
2023-03-30T21:04:01.440Z,16.50
2023-03-30T21:06:33.804Z,17.01
2023-03-30T21:09:07.458Z,17.18
2023-03-30T21:11:42.692Z,17.21
2023-03-30T21:14:15.661Z,17.72
2023-03-30T21:16:48.157Z,17.24
2023-03-30T21:19:19.379Z,17.68
2023-03-30T21:21:50.934Z,18.21
2023-03-30T21:24:22.174Z,18.95
2023-03-30T21:26:53.544Z,18.26
2023-03-30T21:29:25.583Z,18.52
2023-03-30T21:31:56.797Z,18.69
2023-03-30T21:34:28.061Z,19.06
2023-03-30T21:36:59.560Z,19.44
2023-03-30T21:39:31.373Z,20.23
2023-03-30T21:42:02.580Z,19.49
2023-03-30T21:44:38.134Z,19.49
2023-03-30T21:47:09.396Z,20.02
2023-03-30T21:49:40.732Z,19.32
2023-03-30T21:52:12.026Z,20.18
2023-03-30T21:54:43.381Z,19.64
2023-03-30T21:57:14.699Z,20.50
2023-03-30T21:59:46.888Z,20.63
2023-03-30T22:02:18.046Z,20.54
2023-03-30T22:04:49.653Z,21.28
2023-03-30T22:07:20.964Z,21.28
2023-03-30T22:09:53.366Z,20.56
2023-03-30T22:12:24.697Z,20.27
2023-03-30T22:14:55.636Z,20.49
2023-03-30T22:17:36.378Z,20.29
2023-03-30T22:20:08.480Z,21.02
2023-03-30T22:22:39.796Z,20.40
2023-03-30T22:25:11.254Z,20.11
2023-03-30T22:27:43.159Z,21.84
2023-03-30T22:30:15.176Z,21.67
2023-03-30T22:32:46.605Z,21.58
2023-03-30T22:35:18.218Z,21.66
2023-03-30T22:37:49.408Z,22.30
2023-03-30T22:40:21.058Z,22.65
2023-03-30T22:42:52.228Z,21.68
2023-03-30T22:45:22.961Z,23.31
2023-03-30T22:47:58.460Z,22.97
2023-03-30T22:50:31.294Z,21.63
2023-03-30T22:53:02.502Z,22.96
2023-03-30T22:55:33.394Z,22.73
2023-03-30T22:58:04.350Z,23.36
2023-03-30T23:00:36.219Z,23.08
2023-03-30T23:03:07.698Z,22.96
2023-03-30T23:05:39.042Z,22.66
2023-03-30T23:08:12.263Z,23.36
2023-03-30T23:10:45.263Z,23.33
2023-03-30T23:13:16.648Z,23.43
2023-03-30T23:15:50.116Z,23.94
2023-03-30T23:18:22.012Z,23.52
2023-03-30T23:20:57.105Z,24.25
2023-03-30T23:23:28.524Z,24.04
2023-03-30T23:25:59.753Z,24.16
2023-03-30T23:28:34.963Z,23.65
2023-03-30T23:31:17.258Z,23.96
2023-03-30T23:33:48.623Z,24.07
2023-03-30T23:36:20.661Z,23.11
2023-03-30T23:39:01.967Z,24.67
2023-03-30T23:41:33.069Z,24.51
2023-03-30T23:44:04.336Z,24.00
2023-03-30T23:46:35.819Z,23.26
2023-03-30T23:49:07.091Z,25.01
2023-03-30T23:51:38.143Z,24.07
2023-03-30T23:54:09.204Z,24.07
2023-03-30T23:59:14.701Z,25.06
